createdAt,value
2022-12-18T00:00:48.346Z,9.25
2022-12-18T00:04:27.400Z,16.00
2022-12-18T00:07:30.879Z,15.75
2022-12-18T00:10:33.395Z,16.50
2022-12-18T00:13:37.158Z,18.00
2022-12-18T00:16:40.798Z,15.25
2022-12-18T00:19:43.921Z,18.00
2022-12-18T00:22:47.073Z,17.50
2022-12-18T00:25:50.104Z,16.00
2022-12-18T00:28:53.922Z,15.75
2022-12-18T00:31:57.021Z,18.00
2022-12-18T00:34:59.712Z,16.00
2022-12-18T00:38:03.184Z,18.50
2022-12-18T00:41:06.300Z,14.25
2022-12-18T00:44:14.422Z,15.25
2022-12-18T00:47:17.021Z,16.00
2022-12-18T00:50:20.602Z,14.50
2022-12-18T00:53:23.276Z,14.00
2022-12-18T00:56:26.417Z,14.00
2022-12-18T00:59:29.224Z,15.00
2022-12-18T01:02:32.681Z,16.00
2022-12-18T01:05:41.318Z,16.00
2022-12-18T01:08:45.158Z,14.00
2022-12-18T01:11:48.922Z,15.25
2022-12-18T01:14:51.869Z,15.00
2022-12-18T01:17:54.901Z,13.50
2022-12-18T01:20:58.444Z,13.00
2022-12-18T01:24:01.068Z,14.00
2022-12-18T01:27:04.423Z,13.00
2022-12-18T01:30:07.422Z,12.00
2022-12-18T01:33:10.542Z,15.75
2022-12-18T01:36:22.192Z,12.00
2022-12-18T01:39:25.220Z,12.50
2022-12-18T01:42:27.909Z,12.25
2022-12-18T01:45:32.413Z,11.00
2022-12-18T01:48:35.091Z,14.50
2022-12-18T01:51:37.972Z,13.50
2022-12-18T01:54:40.883Z,12.75
2022-12-18T01:57:44.315Z,15.25
2022-12-18T02:00:47.063Z,9.00
2022-12-18T02:03:50.131Z,12.50
2022-12-18T02:07:10.630Z,13.50
2022-12-18T02:10:26.014Z,10.00
2022-12-18T02:13:34.645Z,11.00
2022-12-18T02:16:40.991Z,12.00
2022-12-18T02:20:07.149Z,13.50
2022-12-18T02:23:46.121Z,12.25
2022-12-18T02:26:51.648Z,13.00
2022-12-18T02:29:59.659Z,6.00
2022-12-18T02:33:06.778Z,13.00
2022-12-18T02:36:11.260Z,14.50
2022-12-18T02:39:16.200Z,12.00
2022-12-18T02:42:31.215Z,12.50
2022-12-18T02:45:35.093Z,12.00
2022-12-18T02:48:39.128Z,12.00
2022-12-18T02:51:55.321Z,11.00
2022-12-18T02:55:06.196Z,12.00
2022-12-18T02:58:22.822Z,13.00
2022-12-18T03:01:35.217Z,12.00
2022-12-18T03:05:03.047Z,12.00
2022-12-18T03:08:16.954Z,10.00
2022-12-18T03:11:41.502Z,12.25
2022-12-18T03:14:46.697Z,13.00
2022-12-18T03:17:56.879Z,9.50
2022-12-18T03:21:08.007Z,12.00
2022-12-18T03:24:16.153Z,9.00
2022-12-18T03:27:22.320Z,12.00
2022-12-18T03:30:28.513Z,10.00
2022-12-18T03:33:38.247Z,9.00
2022-12-18T03:36:41.148Z,9.25
2022-12-18T03:39:44.590Z,12.00
2022-12-18T03:42:51.565Z,11.50
2022-12-18T03:46:04.459Z,11.00
2022-12-18T03:49:13.322Z,11.50
2022-12-18T03:52:24.314Z,11.00
2022-12-18T03:55:29.773Z,7.00
2022-12-18T03:58:39.083Z,10.00
2022-12-18T04:02:08.991Z,9.75
2022-12-18T04:05:15.270Z,9.25
2022-12-18T04:08:20.219Z,7.00
2022-12-18T04:11:31.348Z,9.00
2022-12-18T04:14:36.817Z,12.00
2022-12-18T04:17:52.819Z,9.00
2022-12-18T04:20:59.385Z,8.00
2022-12-18T04:24:03.275Z,9.25
2022-12-18T04:27:06.544Z,10.00
2022-12-18T04:30:16.266Z,12.00
2022-12-18T04:33:19.009Z,11.50
2022-12-18T04:36:22.735Z,12.50
2022-12-18T04:39:25.715Z,12.00
2022-12-18T04:42:32.536Z,10.00
2022-12-18T04:45:35.144Z,7.00
2022-12-18T04:48:38.389Z,7.00
2022-12-18T04:51:41.011Z,10.00
2022-12-18T04:54:43.977Z,10.50
2022-12-18T04:57:46.534Z,10.50
2022-12-18T05:00:49.770Z,10.00
2022-12-18T05:03:53.141Z,11.00
2022-12-18T05:06:56.050Z,10.00
2022-12-18T05:09:58.623Z,12.00
2022-12-18T05:13:01.657Z,10.25
2022-12-18T05:16:04.474Z,9.25
2022-12-18T05:19:07.490Z,10.00
2022-12-18T05:22:10.488Z,12.75
2022-12-18T05:25:13.414Z,12.75
2022-12-18T05:28:16.036Z,13.00
2022-12-18T05:31:19.080Z,14.00
2022-12-18T05:34:21.537Z,12.00
2022-12-18T05:37:24.489Z,15.25
2022-12-18T05:40:27.033Z,15.75
2022-12-18T05:43:31.239Z,18.00
2022-12-18T05:46:33.875Z,16.00
2022-12-18T05:49:37.133Z,18.00
2022-12-18T05:52:39.698Z,18.50
2022-12-18T05:55:44.093Z,21.50
2022-12-18T05:58:46.871Z,18.75
2022-12-18T06:01:50.282Z,18.25
2022-12-18T06:04:53.011Z,15.25
2022-12-18T06:07:56.417Z,18.00
2022-12-18T06:10:59.133Z,14.00
2022-12-18T06:14:02.780Z,18.75
2022-12-18T06:17:05.495Z,19.00
2022-12-18T06:20:08.706Z,17.00
2022-12-18T06:23:11.261Z,19.50
2022-12-18T06:26:15.102Z,18.75
2022-12-18T06:29:17.801Z,19.00
2022-12-18T06:32:20.847Z,19.50
2022-12-18T06:35:23.550Z,19.25
2022-12-18T06:38:26.535Z,18.00
2022-12-18T06:41:29.280Z,21.50
2022-12-18T06:44:32.215Z,17.75
2022-12-18T06:47:34.966Z,19.00
2022-12-18T06:50:38.030Z,21.75
2022-12-18T06:53:42.771Z,18.00
2022-12-18T06:56:49.077Z,18.25
2022-12-18T06:59:51.901Z,20.00
2022-12-18T07:02:54.925Z,22.00
2022-12-18T07:05:57.670Z,21.25
2022-12-18T07:09:00.880Z,19.00
2022-12-18T07:12:03.503Z,17.00
2022-12-18T07:15:09.531Z,18.00
2022-12-18T07:18:12.115Z,20.50
2022-12-18T07:21:17.901Z,19.00
2022-12-18T07:24:20.520Z,20.50
2022-12-18T07:27:24.279Z,21.50
2022-12-18T07:30:27.119Z,19.00
2022-12-18T07:33:30.240Z,24.00
2022-12-18T07:36:33.269Z,20.00
2022-12-18T07:39:36.289Z,18.25
2022-12-18T07:42:38.895Z,15.50
2022-12-18T07:45:42.035Z,18.00
2022-12-18T07:48:49.364Z,22.50
2022-12-18T07:51:56.092Z,19.00
2022-12-18T07:54:58.761Z,17.50
2022-12-18T07:58:03.698Z,20.00
2022-12-18T08:01:15.594Z,21.00
2022-12-18T08:04:18.733Z,24.50
2022-12-18T08:07:21.280Z,24.00
2022-12-18T08:10:24.529Z,22.00
2022-12-18T08:13:27.844Z,18.00
2022-12-18T08:16:31.807Z,21.75
2022-12-18T08:19:34.689Z,22.50
2022-12-18T08:22:40.730Z,26.00
2022-12-18T08:25:43.544Z,27.25
2022-12-18T08:28:47.165Z,22.50
2022-12-18T08:31:51.376Z,22.00
2022-12-18T08:34:54.469Z,22.00
2022-12-18T08:37:57.257Z,23.50
2022-12-18T08:41:01.533Z,21.00
2022-12-18T08:44:27.067Z,22.00
2022-12-18T08:47:33.633Z,21.75
2022-12-18T08:50:36.300Z,23.00
2022-12-18T08:53:40.907Z,23.00
2022-12-18T08:56:43.912Z,21.00
2022-12-18T08:59:47.316Z,23.50
2022-12-18T09:02:50.122Z,18.00
2022-12-18T09:05:53.623Z,28.00
2022-12-18T09:08:56.306Z,25.00
2022-12-18T09:11:59.380Z,24.50
2022-12-18T09:15:02.189Z,22.50
2022-12-18T09:18:05.184Z,24.00
2022-12-18T09:21:12.680Z,23.00
2022-12-18T09:24:16.199Z,23.00
2022-12-18T09:27:18.686Z,23.00
2022-12-18T09:30:21.726Z,27.00
2022-12-18T09:33:24.365Z,24.00
2022-12-18T09:36:28.384Z,20.50
2022-12-18T09:39:31.754Z,24.75
2022-12-18T09:42:34.883Z,21.75
2022-12-18T09:45:45.584Z,27.75
2022-12-18T09:48:51.990Z,24.00
2022-12-18T09:51:59.491Z,21.25
2022-12-18T09:55:12.143Z,24.75
2022-12-18T09:58:33.509Z,22.00
2022-12-18T10:01:43.945Z,28.50
2022-12-18T10:04:54.933Z,26.00
2022-12-18T10:08:08.883Z,27.00
2022-12-18T10:11:42.436Z,28.25
2022-12-18T10:14:47.977Z,12.75
2022-12-18T10:17:53.540Z,27.00
2022-12-18T10:21:03.759Z,28.00
2022-12-18T10:24:20.369Z,25.25
2022-12-18T10:27:27.031Z,23.75
2022-12-18T10:30:29.798Z,23.75
2022-12-18T10:33:35.826Z,28.50
2022-12-18T10:36:39.023Z,27.75
2022-12-18T10:39:42.390Z,30.00
2022-12-18T10:42:45.403Z,28.00
2022-12-18T10:46:07.399Z,27.75
2022-12-18T10:49:25.670Z,28.25
2022-12-18T10:52:31.671Z,30.00
2022-12-18T10:55:38.678Z,28.50
2022-12-18T10:58:43.379Z,27.00
2022-12-18T11:01:59.724Z,27.50
2022-12-18T11:05:03.366Z,22.50
2022-12-18T11:08:05.963Z,24.25
2022-12-18T11:11:26.400Z,24.00
2022-12-18T11:14:31.311Z,27.50
2022-12-18T11:17:36.990Z,27.00
2022-12-18T11:20:40.646Z,23.50
2022-12-18T11:23:54.378Z,27.00
2022-12-18T11:26:59.955Z,24.75
2022-12-18T11:30:36.890Z,23.50
2022-12-18T11:33:58.432Z,22.25
2022-12-18T11:37:05.806Z,27.50
2022-12-18T11:40:15.115Z,21.50
2022-12-18T11:43:50.542Z,24.50
2022-12-18T11:47:05.439Z,23.50
2022-12-18T11:50:17.629Z,24.00
2022-12-18T11:53:21.249Z,27.00
2022-12-18T11:56:34.025Z,24.75
2022-12-18T11:59:46.803Z,28.00
2022-12-18T12:03:17.740Z,27.25
2022-12-18T12:06:34.268Z,23.50
2022-12-18T12:10:08.757Z,21.25
2022-12-18T12:13:45.991Z,27.00
2022-12-18T12:16:58.129Z,24.50
2022-12-18T12:20:12.261Z,25.00
2022-12-18T12:23:28.174Z,23.00
2022-12-18T12:26:40.047Z,24.00
2022-12-18T12:29:45.893Z,23.50
2022-12-18T12:32:56.486Z,25.00
2022-12-18T12:36:19.781Z,23.25
2022-12-18T12:39:26.027Z,22.75
2022-12-18T12:43:08.020Z,24.25
2022-12-18T12:46:12.876Z,24.00
2022-12-18T12:49:20.090Z,20.50
2022-12-18T12:52:45.639Z,18.25
2022-12-18T12:55:49.471Z,14.00
2022-12-18T12:59:14.538Z,21.25
2022-12-18T13:02:30.901Z,21.25
2022-12-18T13:05:47.712Z,22.75
2022-12-18T13:09:01.944Z,6.00
2022-12-18T13:12:25.302Z,23.50
2022-12-18T13:15:39.846Z,21.00
2022-12-18T13:18:50.733Z,26.50
2022-12-18T13:21:56.278Z,27.50
2022-12-18T13:24:59.308Z,26.00
2022-12-18T13:28:14.348Z,24.50
2022-12-18T13:31:42.428Z,26.50
2022-12-18T13:34:46.449Z,28.50
2022-12-18T13:37:56.518Z,23.50
2022-12-18T13:41:24.259Z,27.00
2022-12-18T13:44:40.012Z,27.00
2022-12-18T13:47:45.130Z,24.50
2022-12-18T13:51:14.905Z,26.00
2022-12-18T13:54:21.586Z,23.00
2022-12-18T13:57:35.919Z,24.00
2022-12-18T14:00:44.170Z,25.00
2022-12-18T14:03:48.703Z,29.00
2022-12-18T14:06:56.973Z,25.00
2022-12-18T14:10:18.667Z,25.50
2022-12-18T14:13:30.314Z,27.50
2022-12-18T14:16:33.438Z,24.50
2022-12-18T14:19:37.405Z,21.75
2022-12-18T14:22:45.302Z,25.50
2022-12-18T14:25:48.442Z,26.00
2022-12-18T14:28:51.782Z,26.50
2022-12-18T14:32:20.887Z,24.00
2022-12-18T14:35:23.593Z,27.25
2022-12-18T14:38:32.209Z,25.25
2022-12-18T14:41:37.468Z,27.50
2022-12-18T14:45:05.213Z,26.50
2022-12-18T14:48:09.640Z,27.50
2022-12-18T14:51:14.535Z,26.50
2022-12-18T14:54:19.584Z,28.00
2022-12-18T14:57:25.884Z,30.00
2022-12-18T15:00:29.118Z,26.00
2022-12-18T15:03:35.216Z,24.75
2022-12-18T15:06:41.957Z,29.50
2022-12-18T15:10:07.640Z,0.00
2022-12-18T15:13:22.900Z,25.00
2022-12-18T15:16:28.358Z,26.50
2022-12-18T15:19:39.998Z,25.00
2022-12-18T15:22:45.892Z,24.25
2022-12-18T15:25:53.485Z,24.50
2022-12-18T15:29:05.020Z,19.00
2022-12-18T15:32:21.841Z,23.50
2022-12-18T15:35:28.670Z,26.00
2022-12-18T15:38:33.890Z,18.75
2022-12-18T15:41:41.133Z,21.00
2022-12-18T15:44:45.711Z,21.25
2022-12-18T15:47:55.595Z,27.00
2022-12-18T15:51:01.249Z,23.00
2022-12-18T15:54:10.969Z,22.50
2022-12-18T15:57:29.510Z,21.50
2022-12-18T16:00:39.320Z,22.00
2022-12-18T16:03:45.087Z,24.00
2022-12-18T16:10:18.801Z,24.50
2022-12-18T16:13:26.145Z,18.50
2022-12-18T16:16:32.165Z,23.00
2022-12-18T16:19:37.197Z,23.50
2022-12-18T16:22:46.243Z,20.75
2022-12-18T16:25:50.854Z,25.00
2022-12-18T16:28:55.806Z,23.50
2022-12-18T16:32:03.768Z,15.50
2022-12-18T16:35:08.588Z,20.25
2022-12-18T16:38:14.472Z,21.50
2022-12-18T16:41:33.063Z,16.00
2022-12-18T16:44:37.578Z,24.00
2022-12-18T16:47:42.091Z,22.00
2022-12-18T16:50:46.498Z,24.00
2022-12-18T16:53:49.963Z,21.75
2022-12-18T16:56:54.997Z,21.00
2022-12-18T17:00:04.769Z,20.00
2022-12-18T17:03:12.534Z,21.00
2022-12-18T17:06:16.576Z,21.50
2022-12-18T17:09:26.091Z,25.00
2022-12-18T17:12:31.266Z,24.00
2022-12-18T17:15:45.536Z,18.75
2022-12-18T17:18:49.835Z,24.75
2022-12-18T17:21:57.334Z,21.00
2022-12-18T17:25:02.732Z,24.75
2022-12-18T17:28:08.528Z,24.50
2022-12-18T17:31:20.985Z,23.50
2022-12-18T17:34:26.033Z,21.25
2022-12-18T17:37:32.130Z,22.25
2022-12-18T17:40:36.708Z,24.25
2022-12-18T17:43:46.415Z,28.50
2022-12-18T17:46:54.355Z,27.25
2022-12-18T17:49:59.208Z,25.75
2022-12-18T17:53:04.688Z,20.75
2022-12-18T17:56:11.486Z,27.00
2022-12-18T17:59:16.946Z,24.75
2022-12-18T18:02:22.847Z,27.00
2022-12-18T18:05:31.588Z,24.00
2022-12-18T18:08:37.370Z,30.00
2022-12-18T18:12:00.227Z,30.00
2022-12-18T18:15:08.805Z,25.00
2022-12-18T18:18:13.496Z,24.00
2022-12-18T18:21:19.299Z,26.00
2022-12-18T18:24:25.831Z,25.00
2022-12-18T18:27:38.419Z,26.75
2022-12-18T18:30:44.558Z,27.00
2022-12-18T18:33:48.469Z,26.50
2022-12-18T18:36:53.581Z,19.00
2022-12-18T18:39:58.836Z,26.50
2022-12-18T18:43:03.547Z,29.50
2022-12-18T18:46:11.134Z,27.00
2022-12-18T18:49:16.644Z,22.00
2022-12-18T18:52:21.396Z,30.00
2022-12-18T18:55:27.151Z,24.50
2022-12-18T18:58:32.436Z,24.75
2022-12-18T19:01:36.683Z,20.00
2022-12-18T19:04:46.188Z,22.50
2022-12-18T19:07:52.039Z,24.25
2022-12-18T19:10:58.019Z,19.00
2022-12-18T19:14:03.961Z,24.25
2022-12-18T19:17:09.848Z,27.00
2022-12-18T19:20:15.824Z,20.00
2022-12-18T19:23:19.820Z,23.75
2022-12-18T19:26:28.087Z,24.25
2022-12-18T19:29:32.550Z,16.25
2022-12-18T19:32:39.748Z,21.75
2022-12-18T19:35:43.645Z,19.75
2022-12-18T19:38:49.323Z,18.00
2022-12-18T19:41:53.733Z,23.75
2022-12-18T19:44:59.262Z,24.75
2022-12-18T19:48:04.616Z,18.25
2022-12-18T19:51:17.121Z,25.50
2022-12-18T19:54:21.129Z,19.50
2022-12-18T19:57:26.315Z,6.25
2022-12-18T20:00:30.121Z,20.50
2022-12-18T20:03:36.426Z,19.50
2022-12-18T20:06:51.289Z,21.50
2022-12-18T20:10:01.352Z,26.50
2022-12-18T20:13:11.822Z,22.00
2022-12-18T20:16:19.349Z,12.25
2022-12-18T20:19:23.817Z,20.00
2022-12-18T20:22:28.971Z,18.50
2022-12-18T20:25:35.988Z,24.75
2022-12-18T20:28:44.740Z,25.25
2022-12-18T20:31:48.830Z,22.00
2022-12-18T20:34:54.247Z,21.00
2022-12-18T20:37:57.614Z,21.75
2022-12-18T20:41:05.989Z,18.00
2022-12-18T20:44:22.683Z,20.50
2022-12-18T20:47:30.767Z,18.25
2022-12-18T20:50:36.044Z,21.25
2022-12-18T20:53:40.980Z,21.25
2022-12-18T20:56:49.304Z,18.25
2022-12-18T20:59:54.606Z,21.75
2022-12-18T21:02:58.019Z,20.25
2022-12-18T21:06:02.211Z,21.50
2022-12-18T21:09:07.316Z,20.75
2022-12-18T21:12:40.359Z,19.00
2022-12-18T21:15:49.230Z,20.00
2022-12-18T21:18:54.538Z,20.00
2022-12-18T21:21:58.869Z,21.50
2022-12-18T21:25:02.261Z,20.00
2022-12-18T21:28:05.323Z,21.00
2022-12-18T21:31:08.943Z,17.50
2022-12-18T21:34:24.086Z,20.00
2022-12-18T21:37:27.747Z,20.50
2022-12-18T21:40:30.275Z,18.50
2022-12-18T21:43:59.464Z,17.00
2022-12-18T21:47:13.413Z,12.75
2022-12-18T21:50:26.040Z,21.75
2022-12-18T21:53:28.748Z,17.00
2022-12-18T21:56:52.450Z,15.00
2022-12-18T21:59:55.186Z,14.50
2022-12-18T22:03:17.867Z,21.00
2022-12-18T22:06:21.020Z,16.00
2022-12-18T22:09:25.340Z,16.50
2022-12-18T22:12:43.349Z,18.00
2022-12-18T22:15:48.229Z,17.50
2022-12-18T22:18:51.093Z,13.25
2022-12-18T22:21:54.810Z,16.50
2022-12-18T22:24:57.495Z,17.50
2022-12-18T22:28:19.039Z,17.50
2022-12-18T22:31:21.593Z,15.00
2022-12-18T22:34:24.766Z,16.00
2022-12-18T22:37:27.558Z,19.00
2022-12-18T22:40:30.756Z,16.00
2022-12-18T22:43:33.893Z,14.25
2022-12-18T22:46:43.490Z,15.75
2022-12-18T22:49:46.161Z,14.00
2022-12-18T22:52:49.489Z,12.25
2022-12-18T22:55:52.164Z,16.50
2022-12-18T22:58:55.795Z,20.50
2022-12-18T23:01:59.802Z,15.50
2022-12-18T23:05:02.867Z,17.00
2022-12-18T23:08:05.634Z,15.75
2022-12-18T23:11:08.946Z,18.25
2022-12-18T23:14:12.230Z,19.00
2022-12-18T23:17:15.021Z,17.00
2022-12-18T23:20:17.663Z,18.25
2022-12-18T23:23:20.669Z,15.00
2022-12-18T23:26:24.839Z,16.50
2022-12-18T23:29:28.195Z,17.50
2022-12-18T23:32:30.800Z,18.50
2022-12-18T23:35:35.899Z,18.75
2022-12-18T23:38:38.693Z,16.00
2022-12-18T23:41:41.615Z,18.00
2022-12-18T23:44:44.353Z,17.50
2022-12-18T23:47:51.102Z,15.25
2022-12-18T23:50:54.058Z,18.00
2022-12-18T23:53:59.943Z,16.50
2022-12-18T23:57:02.584Z,18.00
